createdAt,value
2023-02-14T00:00:23.255Z,80.78
2023-02-14T00:02:49.736Z,81.09
2023-02-14T00:05:16.260Z,81.49
2023-02-14T00:07:42.597Z,81.17
2023-02-14T00:10:09.696Z,81.04
2023-02-14T00:12:36.224Z,80.77
2023-02-14T00:15:21.519Z,80.54
2023-02-14T00:17:51.721Z,80.36
2023-02-14T00:20:18.713Z,80.53
2023-02-14T00:22:44.997Z,80.78
2023-02-14T00:25:11.440Z,80.82
2023-02-14T00:27:38.006Z,80.95
2023-02-14T00:30:06.026Z,80.97
2023-02-14T00:32:32.539Z,81.62
2023-02-14T00:34:59.194Z,81.17
2023-02-14T00:37:25.509Z,81.28
2023-02-14T00:39:51.909Z,80.81
2023-02-14T00:42:18.300Z,81.37
2023-02-14T00:44:44.569Z,81.28
2023-02-14T00:47:10.860Z,80.91
2023-02-14T00:49:37.180Z,80.84
2023-02-14T00:52:03.764Z,80.58
2023-02-14T00:54:30.108Z,81.49
2023-02-14T00:56:56.397Z,81.59
2023-02-14T00:59:22.771Z,80.60
2023-02-14T01:01:49.539Z,81.14
2023-02-14T01:04:15.900Z,81.71
2023-02-14T01:06:42.359Z,81.60
2023-02-14T01:09:08.690Z,81.23
2023-02-14T01:11:35.041Z,81.76
2023-02-14T01:14:01.876Z,81.57
2023-02-14T01:16:28.632Z,81.87
2023-02-14T01:18:55.989Z,82.45
2023-02-14T01:21:28.257Z,82.31
2023-02-14T01:23:56.301Z,81.74
2023-02-14T01:26:24.090Z,82.26
2023-02-14T01:28:50.830Z,81.96
2023-02-14T01:31:20.052Z,82.27
2023-02-14T01:33:48.622Z,82.05
2023-02-14T01:36:24.249Z,82.91
2023-02-14T01:38:53.053Z,82.50
2023-02-14T01:41:19.523Z,82.98
2023-02-14T01:43:50.058Z,82.16
2023-02-14T01:46:16.371Z,82.31
2023-02-14T01:48:42.741Z,82.05
2023-02-14T01:51:09.087Z,81.81
2023-02-14T01:53:35.611Z,82.38
2023-02-14T01:56:07.918Z,82.36
2023-02-14T01:58:37.900Z,82.09
2023-02-14T02:01:05.277Z,82.31
2023-02-14T02:03:31.506Z,82.74
2023-02-14T02:06:03.331Z,82.24
2023-02-14T02:08:29.691Z,82.56
2023-02-14T02:10:56.028Z,83.00
2023-02-14T02:13:22.757Z,83.08
2023-02-14T02:16:12.426Z,83.00
2023-02-14T02:19:05.303Z,82.10
2023-02-14T02:21:50.170Z,82.55
2023-02-14T02:24:52.538Z,82.54
2023-02-14T02:27:42.567Z,81.98
2023-02-14T02:30:34.776Z,82.82
2023-02-14T02:33:09.912Z,82.72
2023-02-14T02:35:50.062Z,81.90
2023-02-14T02:38:16.286Z,82.64
2023-02-14T02:40:57.968Z,82.72
2023-02-14T02:43:45.171Z,82.76
2023-02-14T02:46:39.571Z,82.71
2023-02-14T02:49:11.740Z,82.90
2023-02-14T02:52:18.306Z,82.54
2023-02-14T02:54:52.372Z,82.99
2023-02-14T02:57:26.430Z,82.06
2023-02-14T02:59:55.875Z,82.91
2023-02-14T03:02:32.049Z,83.10
2023-02-14T03:05:01.801Z,82.50
2023-02-14T03:07:37.489Z,82.67
2023-02-14T03:10:16.808Z,82.91
2023-02-14T03:13:05.264Z,83.17
2023-02-14T03:15:55.917Z,83.36
2023-02-14T03:18:50.373Z,83.88
2023-02-14T03:21:29.638Z,82.95
2023-02-14T03:24:17.787Z,83.22
2023-02-14T03:27:11.603Z,83.42
2023-02-14T03:29:43.938Z,83.67
2023-02-14T03:32:29.219Z,83.33
2023-02-14T03:35:23.462Z,83.27
2023-02-14T03:37:57.719Z,84.21
2023-02-14T03:40:33.689Z,84.19
2023-02-14T03:43:18.628Z,83.84
2023-02-14T03:45:51.504Z,83.42
2023-02-14T03:48:20.595Z,83.59
2023-02-14T03:50:50.149Z,83.70
2023-02-14T03:53:22.814Z,83.36
2023-02-14T03:56:03.731Z,83.72
2023-02-14T03:58:38.935Z,83.28
2023-02-14T04:01:20.928Z,83.74
2023-02-14T04:03:48.757Z,83.61
2023-02-14T04:06:18.407Z,83.63
2023-02-14T04:08:44.833Z,83.74
2023-02-14T04:11:11.401Z,83.86
2023-02-14T04:13:38.585Z,83.92
2023-02-14T04:16:05.931Z,83.43
2023-02-14T04:18:51.045Z,83.18
2023-02-14T04:21:17.379Z,83.58
2023-02-14T04:23:43.716Z,84.32
2023-02-14T04:26:10.306Z,84.23
2023-02-14T04:28:36.690Z,83.90
2023-02-14T04:31:04.980Z,84.03
2023-02-14T04:33:31.347Z,83.86
2023-02-14T04:35:57.641Z,83.70
2023-02-14T04:38:24.040Z,83.52
2023-02-14T04:40:51.985Z,83.70
2023-02-14T04:43:19.387Z,83.71
2023-02-14T04:45:46.788Z,83.46
2023-02-14T04:48:13.125Z,83.11
2023-02-14T04:50:39.415Z,83.63
2023-02-14T04:53:05.706Z,84.06
2023-02-14T04:55:31.997Z,83.84
2023-02-14T04:57:58.352Z,83.56
2023-02-14T05:00:25.284Z,83.78
2023-02-14T05:02:51.617Z,83.98
2023-02-14T05:05:18.064Z,83.71
2023-02-14T05:07:47.779Z,84.63
2023-02-14T05:10:14.727Z,84.67
2023-02-14T05:12:41.149Z,84.41
2023-02-14T05:15:07.744Z,84.11
2023-02-14T05:17:34.073Z,84.22
2023-02-14T05:20:00.392Z,83.92
2023-02-14T05:22:26.782Z,84.26
2023-02-14T05:24:53.119Z,84.35
2023-02-14T05:27:19.458Z,83.95
2023-02-14T05:29:45.754Z,83.93
2023-02-14T05:32:12.165Z,83.69
2023-02-14T05:34:38.579Z,83.30
2023-02-14T05:37:04.925Z,82.69
2023-02-14T05:39:31.234Z,82.65
2023-02-14T05:41:59.332Z,82.78
2023-02-14T05:44:25.894Z,82.60
2023-02-14T05:46:52.355Z,82.21
2023-02-14T05:49:18.661Z,82.61
2023-02-14T05:51:44.983Z,82.53
2023-02-14T05:54:11.356Z,82.39
2023-02-14T05:56:37.765Z,81.95
2023-02-14T05:59:04.110Z,82.39
2023-02-14T06:01:30.397Z,82.21
2023-02-14T06:03:56.686Z,82.67
2023-02-14T06:06:23.026Z,82.96
2023-02-14T06:08:49.436Z,82.20
2023-02-14T06:11:15.963Z,82.30
2023-02-14T06:13:42.283Z,82.59
2023-02-14T06:16:08.618Z,82.45
2023-02-14T06:18:35.011Z,81.93
2023-02-14T06:21:01.734Z,81.94
2023-02-14T06:23:28.325Z,82.16
2023-02-14T06:25:54.647Z,82.20
2023-02-14T06:28:20.976Z,82.71
2023-02-14T06:30:47.467Z,82.48
2023-02-14T06:33:14.181Z,82.52
2023-02-14T06:35:40.523Z,82.59
2023-02-14T06:38:06.920Z,82.44
2023-02-14T06:40:33.261Z,82.76
2023-02-14T06:42:59.585Z,82.92
2023-02-14T06:45:25.981Z,82.72
2023-02-14T06:47:52.288Z,82.83
2023-02-14T06:50:18.693Z,82.82
2023-02-14T06:52:45.009Z,82.83
2023-02-14T06:55:13.713Z,82.93
2023-02-14T06:57:40.281Z,82.39
2023-02-14T07:00:07.588Z,82.51
2023-02-14T07:02:33.879Z,82.81
2023-02-14T07:05:00.264Z,82.75
2023-02-14T07:07:26.604Z,82.78
2023-02-14T07:09:52.986Z,83.31
2023-02-14T07:12:19.281Z,83.66
2023-02-14T07:14:45.692Z,83.05
2023-02-14T07:17:12.041Z,83.13
2023-02-14T07:19:38.340Z,83.22
2023-02-14T07:22:04.713Z,82.86
2023-02-14T07:24:31.176Z,82.66
2023-02-14T07:26:57.484Z,82.71
2023-02-14T07:29:23.865Z,82.41
2023-02-14T07:31:50.439Z,82.56
2023-02-14T07:34:16.923Z,82.57
2023-02-14T07:36:44.123Z,82.81
2023-02-14T07:39:10.668Z,82.47
2023-02-14T07:41:37.307Z,83.43
2023-02-14T07:44:03.725Z,82.74
2023-02-14T07:46:30.408Z,82.37
2023-02-14T07:48:56.703Z,82.19
2023-02-14T07:51:22.995Z,81.76
2023-02-14T07:53:49.370Z,81.88
2023-02-14T07:56:15.725Z,82.32
2023-02-14T07:58:42.094Z,81.82
2023-02-14T08:01:08.977Z,80.99
2023-02-14T08:03:35.459Z,80.38
2023-02-14T08:06:18.733Z,81.34
2023-02-14T08:08:45.719Z,80.54
2023-02-14T08:11:15.136Z,80.21
2023-02-14T08:13:41.421Z,80.17
2023-02-14T08:16:09.566Z,80.18
2023-02-14T08:18:39.826Z,79.85
2023-02-14T08:21:08.956Z,79.25
2023-02-14T08:23:36.159Z,78.99
2023-02-14T08:26:03.559Z,79.56
2023-02-14T08:28:29.946Z,79.33
2023-02-14T08:30:56.425Z,78.95
2023-02-14T08:33:22.995Z,79.69
2023-02-14T08:40:29.071Z,79.98
2023-02-14T08:42:55.416Z,79.09
2023-02-14T08:45:21.867Z,79.74
2023-02-14T08:47:51.001Z,80.13
2023-02-14T08:50:18.063Z,80.03
2023-02-14T08:52:44.495Z,80.13
2023-02-14T08:55:15.161Z,79.21
2023-02-14T08:57:44.069Z,78.33
2023-02-14T09:00:12.203Z,79.07
2023-02-14T09:06:07.905Z,77.82
2023-02-14T09:09:05.050Z,77.17
2023-02-14T09:11:47.754Z,77.94
2023-02-14T09:14:17.426Z,78.15
2023-02-14T09:16:44.074Z,78.38
2023-02-14T09:19:10.567Z,78.60
2023-02-14T09:21:36.999Z,78.57
2023-02-14T09:24:05.706Z,78.72
2023-02-14T09:26:32.612Z,78.63
2023-02-14T09:29:00.445Z,78.46
2023-02-14T09:31:26.916Z,78.83
2023-02-14T09:33:53.538Z,78.52
2023-02-14T09:36:20.044Z,79.05
2023-02-14T09:38:47.270Z,78.52
2023-02-14T09:41:33.964Z,78.71
2023-02-14T09:44:09.152Z,78.60
2023-02-14T09:46:52.843Z,78.41
2023-02-14T09:49:52.633Z,78.26
2023-02-14T09:52:37.143Z,77.64
2023-02-14T09:55:19.991Z,76.88
2023-02-14T09:58:21.888Z,75.63
2023-02-14T10:01:05.453Z,75.80
2023-02-14T10:04:00.014Z,76.97
2023-02-14T10:06:50.704Z,76.96
2023-02-14T10:09:46.233Z,76.84
2023-02-14T10:12:28.409Z,76.87
2023-02-14T10:15:42.504Z,77.18
2023-02-14T10:21:42.639Z,76.90
2023-02-14T10:24:18.968Z,76.33
2023-02-14T10:26:50.651Z,77.04
2023-02-14T10:29:20.171Z,77.54
2023-02-14T10:31:51.538Z,77.53
2023-02-14T10:34:42.452Z,77.24
2023-02-14T10:37:17.314Z,77.46
2023-02-14T10:40:04.906Z,76.82
2023-02-14T10:43:00.146Z,76.99
2023-02-14T10:45:47.627Z,76.51
2023-02-14T10:48:29.789Z,75.59
2023-02-14T10:50:59.751Z,75.34
2023-02-14T10:53:36.693Z,75.07
2023-02-14T10:56:14.630Z,75.07
2023-02-14T10:58:42.049Z,74.39
2023-02-14T11:01:13.188Z,74.00
2023-02-14T11:06:16.028Z,72.59
2023-02-14T11:08:42.707Z,72.40
2023-02-14T11:11:20.041Z,73.46
2023-02-14T11:13:46.974Z,74.03
2023-02-14T11:16:30.497Z,73.62
2023-02-14T11:19:15.309Z,74.28
2023-02-14T11:21:52.655Z,73.63
2023-02-14T11:24:53.443Z,73.21
2023-02-14T11:27:29.023Z,71.24
2023-02-14T11:30:01.078Z,70.95
2023-02-14T11:32:40.237Z,70.39
2023-02-14T11:35:19.494Z,71.06
2023-02-14T11:37:51.294Z,71.19
2023-02-14T11:40:38.496Z,71.33
2023-02-14T11:43:14.217Z,71.14
2023-02-14T11:45:45.930Z,71.45
2023-02-14T11:48:37.753Z,71.00
2023-02-14T11:51:09.414Z,71.00
2023-02-14T11:53:47.451Z,70.29
2023-02-14T11:56:19.447Z,68.77
2023-02-14T11:58:55.900Z,67.98
2023-02-14T12:01:31.428Z,68.39
2023-02-14T12:04:32.704Z,67.47
2023-02-14T12:14:35.529Z,67.16
2023-02-14T12:17:11.129Z,66.60
2023-02-14T12:20:11.990Z,65.78
2023-02-14T12:30:20.019Z,64.05
2023-02-14T12:32:56.659Z,62.38
2023-02-14T12:35:47.192Z,63.12
2023-02-14T12:38:46.945Z,62.77
2023-02-14T12:41:35.690Z,62.54
2023-02-14T12:52:08.282Z,63.05
2023-02-14T12:54:48.105Z,61.59
2023-02-14T12:57:29.435Z,61.98
2023-02-14T13:00:17.556Z,61.18
2023-02-14T13:03:13.729Z,60.33
2023-02-14T13:06:10.261Z,57.70
2023-02-14T13:08:41.513Z,57.93
2023-02-14T13:11:36.473Z,57.86
2023-02-14T13:14:28.933Z,59.27
2023-02-14T13:17:24.051Z,58.91
2023-02-14T13:20:51.478Z,58.26
2023-02-14T13:26:32.573Z,57.26
2023-02-14T13:35:31.293Z,54.58
2023-02-14T13:38:25.565Z,56.01
2023-02-14T13:45:43.326Z,55.03
2023-02-14T13:48:31.811Z,54.52
2023-02-14T13:51:11.531Z,55.25
2023-02-14T13:54:07.636Z,55.89
2023-02-14T13:56:39.912Z,56.60
2023-02-14T13:59:39.930Z,55.77
2023-02-14T14:02:33.742Z,55.49
2023-02-14T14:05:48.009Z,56.24
2023-02-14T14:08:26.638Z,54.44
2023-02-14T14:11:07.157Z,54.86
2023-02-14T14:14:55.285Z,55.44
2023-02-14T14:17:04.825Z,56.05
2023-02-14T14:19:45.075Z,55.72
2023-02-14T14:31:47.209Z,51.33
2023-02-14T14:34:20.186Z,50.95
2023-02-14T14:36:47.099Z,51.92
2023-02-14T14:39:27.014Z,51.96
2023-02-14T14:41:53.555Z,52.48
2023-02-14T14:44:28.438Z,54.33
2023-02-14T15:02:25.230Z,58.96
2023-02-14T15:17:59.512Z,62.87
2023-02-14T15:20:32.235Z,63.07
2023-02-14T15:23:06.191Z,63.07
2023-02-14T15:45:04.694Z,68.51
2023-02-14T15:47:31.090Z,68.92
2023-02-14T15:49:57.514Z,69.51
2023-02-14T15:52:25.798Z,69.73
2023-02-14T16:06:46.799Z,71.83
2023-02-14T16:09:28.070Z,72.32
2023-02-14T16:11:54.874Z,72.16
2023-02-14T16:14:46.933Z,72.93
2023-02-14T16:17:18.890Z,73.14
2023-02-14T16:19:49.689Z,73.60
2023-02-14T16:22:35.669Z,73.80
2023-02-14T16:27:37.073Z,75.01
2023-02-14T16:30:06.350Z,74.82
2023-02-14T16:32:36.609Z,74.93
2023-02-14T17:33:30.356Z,80.05
2023-02-14T17:36:04.232Z,80.25
2023-02-14T17:38:31.877Z,79.80
2023-02-14T17:41:00.084Z,81.48
2023-02-14T17:43:28.514Z,81.59
2023-02-14T17:45:57.160Z,80.69
2023-02-14T17:48:25.090Z,80.00
2023-02-14T17:50:53.140Z,81.26
2023-02-14T17:56:43.109Z,81.05
2023-02-14T17:59:09.436Z,80.79
2023-02-14T18:01:36.303Z,81.13
2023-02-14T18:04:02.760Z,81.36
2023-02-14T18:06:29.054Z,81.45
2023-02-14T18:08:58.467Z,82.00
2023-02-14T18:11:27.946Z,82.25
2023-02-14T18:13:55.815Z,82.81
2023-02-14T18:16:22.843Z,82.43
2023-02-14T18:18:49.209Z,82.39
2023-02-14T18:21:19.304Z,82.26
2023-02-14T18:23:45.677Z,83.00
2023-02-14T18:26:15.041Z,82.85
2023-02-14T18:28:41.530Z,82.48
2023-02-14T18:31:13.193Z,81.83
2023-02-14T18:33:40.511Z,82.04
2023-02-14T18:36:08.212Z,82.13
2023-02-14T18:38:35.601Z,81.98
2023-02-14T18:41:07.176Z,82.34
2023-02-14T18:43:33.665Z,81.95
2023-02-14T18:46:05.268Z,82.77
2023-02-14T18:48:32.323Z,82.77
2023-02-14T18:51:05.703Z,83.02
2023-02-14T18:53:32.032Z,82.71
2023-02-14T18:55:58.441Z,81.96
2023-02-14T18:58:24.942Z,82.60
2023-02-14T19:00:51.356Z,82.64
2023-02-14T19:03:17.664Z,82.63
2023-02-14T19:05:43.977Z,83.31
2023-02-14T19:08:10.253Z,83.03
2023-02-14T19:10:37.733Z,82.89
2023-02-14T19:13:04.053Z,81.96
2023-02-14T19:15:30.374Z,82.22
2023-02-14T19:17:56.664Z,82.65
2023-02-14T19:20:23.029Z,81.99
2023-02-14T19:22:49.631Z,81.88
2023-02-14T19:25:16.011Z,81.92
2023-02-14T19:27:42.943Z,82.17
2023-02-14T19:30:10.654Z,81.53
2023-02-14T19:32:37.104Z,82.42
2023-02-14T19:35:03.540Z,82.16
2023-02-14T19:37:29.883Z,82.85
2023-02-14T19:39:56.263Z,81.79
2023-02-14T19:42:22.600Z,82.55
2023-02-14T19:44:48.918Z,82.00
2023-02-14T19:47:30.971Z,82.26
2023-02-14T19:50:00.145Z,82.79
2023-02-14T19:52:28.078Z,82.86
2023-02-14T19:54:57.439Z,82.99
2023-02-14T19:57:24.680Z,82.47
2023-02-14T19:59:50.916Z,82.96
2023-02-14T20:02:18.868Z,82.57
2023-02-14T20:04:45.548Z,83.11
2023-02-14T20:07:11.896Z,82.46
2023-02-14T20:09:38.280Z,82.51
2023-02-14T20:12:04.861Z,82.43
2023-02-14T20:14:49.809Z,82.80
2023-02-14T20:17:17.898Z,82.35
2023-02-14T20:19:44.258Z,82.22
2023-02-14T20:22:10.635Z,82.47
2023-02-14T20:24:36.963Z,82.10
2023-02-14T20:27:03.342Z,81.85
2023-02-14T20:29:30.028Z,81.86
2023-02-14T20:31:59.630Z,81.94
2023-02-14T20:34:26.546Z,81.34
2023-02-14T20:36:55.116Z,81.56
2023-02-14T20:39:26.552Z,81.05
2023-02-14T20:41:53.967Z,81.36
2023-02-14T20:44:21.398Z,82.13
2023-02-14T20:46:49.504Z,81.83
2023-02-14T20:49:16.376Z,82.00
2023-02-14T20:51:43.586Z,82.18
2023-02-14T20:54:09.956Z,82.75
2023-02-14T20:56:36.971Z,83.04
2023-02-14T20:59:03.296Z,82.97
2023-02-14T21:01:30.267Z,82.56
2023-02-14T21:03:56.663Z,82.92
2023-02-14T21:06:29.649Z,82.59
2023-02-14T21:08:56.238Z,82.49
2023-02-14T21:11:24.185Z,82.98
2023-02-14T21:13:59.488Z,82.86
2023-02-14T21:16:26.995Z,82.45
2023-02-14T21:18:58.864Z,82.80
2023-02-14T21:21:33.764Z,82.99
2023-02-14T21:24:08.538Z,83.18
2023-02-14T21:26:35.923Z,83.52
2023-02-14T21:29:02.401Z,82.97
2023-02-14T21:31:29.174Z,82.83
2023-02-14T21:33:58.107Z,82.88
2023-02-14T21:36:26.989Z,82.95
2023-02-14T21:38:55.795Z,83.28
2023-02-14T21:41:23.813Z,83.40
2023-02-14T21:43:52.795Z,83.35
2023-02-14T21:46:27.045Z,83.05
2023-02-14T21:49:13.300Z,83.16
2023-02-14T21:51:40.130Z,82.98
2023-02-14T21:54:07.124Z,83.40
2023-02-14T21:56:34.743Z,83.48
2023-02-14T21:59:01.636Z,82.96
2023-02-14T22:01:33.532Z,83.02
2023-02-14T22:04:00.699Z,83.34
2023-02-14T22:06:27.427Z,82.69
2023-02-14T22:08:55.804Z,82.85
2023-02-14T22:11:23.581Z,82.82
2023-02-14T22:13:49.911Z,83.47
2023-02-14T22:16:19.033Z,83.62
2023-02-14T22:18:48.854Z,83.23
2023-02-14T22:21:21.589Z,82.86
2023-02-14T22:23:48.396Z,83.37
2023-02-14T22:26:17.982Z,83.03
2023-02-14T22:28:46.635Z,82.62
2023-02-14T22:31:13.940Z,83.52
2023-02-14T22:33:40.841Z,83.43
2023-02-14T22:36:07.795Z,83.24
2023-02-14T22:38:35.065Z,82.85
2023-02-14T22:41:15.299Z,82.69
2023-02-14T22:43:42.602Z,82.58
2023-02-14T22:46:10.378Z,83.05
2023-02-14T22:48:37.815Z,83.22
2023-02-14T22:51:35.525Z,83.13
2023-02-14T22:54:08.227Z,83.46
2023-02-14T22:56:38.594Z,83.32
2023-02-14T22:59:07.377Z,83.10
2023-02-14T23:01:35.092Z,83.59
2023-02-14T23:04:02.702Z,83.44
2023-02-14T23:06:31.724Z,82.78
2023-02-14T23:08:58.160Z,83.15
2023-02-14T23:11:32.790Z,83.23
2023-02-14T23:14:18.362Z,83.47
2023-02-14T23:17:03.494Z,83.69
2023-02-14T23:19:51.216Z,83.56
2023-02-14T23:22:21.840Z,83.34
2023-02-14T23:24:50.135Z,83.72
2023-02-14T23:27:18.886Z,83.92
2023-02-14T23:29:45.320Z,83.72
2023-02-14T23:32:12.137Z,84.44
2023-02-14T23:34:41.184Z,83.86
2023-02-14T23:37:08.340Z,83.41
2023-02-14T23:39:37.653Z,84.15
2023-02-14T23:42:06.091Z,83.74
2023-02-14T23:44:33.259Z,83.71
2023-02-14T23:47:01.578Z,83.36
2023-02-14T23:49:28.263Z,83.73
2023-02-14T23:51:55.391Z,83.35
2023-02-14T23:54:23.446Z,83.58
2023-02-14T23:56:52.100Z,84.00
2023-02-14T23:59:19.572Z,84.21
